Time;durP1;ratioP1;P1;durP2;ratioP2;P2;SDS_P1;SDS_P2;PMS_P1;PMS_P2;Temp;Humidity;BMP_temperature;BMP_pressure;BME280_temperature;BME280_humidity;BME280_pressure;Samples;Min_cycle;Max_cycle;Signal;HPM_P1;HPM_P2
2023/10/12 00:01:57;;;;;;;5.30;1.90;;;;;;;12.00;40.50;100876.16;105969;1260;72667;-64
2023/10/12 00:04:26;;;;;;;9.60;4.10;;;;;;;12.00;40.53;100870.34;105609;1253;60556;-59
2023/10/12 00:06:55;;;;;;;13.80;4.30;;;;;;;12.01;40.65;100865.02;105748;1253;60400;-60
2023/10/12 00:09:26;;;;;;;9.20;4.50;;;;;;;12.01;40.87;100864.70;105646;1259;63724;-58
2023/10/12 00:12:07;;;;;;;8.80;3.80;;;;;;;12.01;40.90;100861.65;105728;1254;60394;-59
2023/10/12 00:14:35;;;;;;;9.40;4.10;;;;;;;12.02;40.85;100855.80;106230;1255;62447;-57
2023/10/12 00:17:05;;;;;;;9.10;3.70;;;;;;;12.04;40.89;100851.44;105386;1261;60544;-61
2023/10/12 00:19:33;;;;;;;13.60;4.30;;;;;;;12.05;40.93;100845.39;105230;1253;60584;-62
2023/10/12 00:22:02;;;;;;;10.50;3.70;;;;;;;12.03;41.06;100842.16;105326;1253;64871;-64
2023/10/12 00:24:30;;;;;;;9.50;4.30;;;;;;;12.03;41.14;100841.63;105672;1256;60167;-61
2023/10/12 00:26:58;;;;;;;10.90;4.20;;;;;;;12.03;41.32;100830.42;105568;1256;74859;-61
2023/10/12 00:29:27;;;;;;;10.40;4.40;;;;;;;12.02;41.30;100828.39;105655;1258;60453;-57
2023/10/12 00:31:57;;;;;;;9.40;3.80;;;;;;;12.01;41.34;100823.86;105476;1260;60488;-60
2023/10/12 00:34:27;;;;;;;9.00;4.20;;;;;;;12.01;41.47;100817.03;105653;1253;63652;-62
2023/10/12 00:36:57;;;;;;;15.70;4.20;;;;;;;12.00;41.57;100812.67;105466;1260;60342;-60
2023/10/12 00:39:34;;;;;;;10.90;4.20;;;;;;;11.99;41.62;100807.67;105130;1260;64200;-61
2023/10/12 00:51:53;;;;;;;10.50;3.70;;;;;;;11.94;42.05;100793.30;105236;1261;62896;-61
2023/10/12 00:57:11;;;;;;;12.00;4.00;;;;;;;11.94;42.17;100791.36;105113;1255;60357;-56
2023/10/12 00:59:38;;;;;;;9.80;4.30;;;;;;;11.95;42.18;100793.77;106072;1253;59256;-63
2023/10/12 01:02:15;;;;;;;15.10;3.80;;;;;;;11.94;42.21;100793.48;105311;1253;64920;-56
2023/10/12 01:04:48;;;;;;;9.10;3.60;;;;;;;11.94;42.24;100797.02;105300;1258;60492;-62
2023/10/12 01:07:25;;;;;;;10.20;4.00;;;;;;;11.93;42.26;100794.93;105924;1255;64399;-58
2023/10/12 01:10:10;;;;;;;11.20;4.00;;;;;;;11.93;42.34;100790.23;105232;1258;60556;-61
2023/10/12 01:12:38;;;;;;;7.90;3.80;;;;;;;11.93;42.37;100790.41;105469;1259;59546;-62
2023/10/12 01:15:11;;;;;;;7.10;3.50;;;;;;;11.93;42.48;100788.15;105282;1253;64873;-59
2023/10/12 01:17:40;;;;;;;7.70;3.70;;;;;;;11.93;42.49;100775.50;105246;1261;60290;-63
2023/10/12 01:20:16;;;;;;;8.40;3.70;;;;;;;11.93;42.49;100772.45;105432;1256;62643;-58
2023/10/12 01:22:47;;;;;;;11.60;3.80;;;;;;;11.93;42.57;100766.12;105861;1258;60566;-60
2023/10/12 01:25:27;;;;;;;8.10;3.30;;;;;;;11.93;42.53;100759.63;105923;1259;60371;-60
2023/10/12 01:27:55;;;;;;;12.40;3.60;;;;;;;11.93;42.48;100756.27;105285;1253;63883;-64
2023/10/12 01:30:23;;;;;;;8.80;4.10;;;;;;;11.93;42.53;100752.05;105593;1260;60520;-61
2023/10/12 01:32:57;;;;;;;10.30;3.70;;;;;;;11.93;42.66;100750.63;105776;1253;64176;-61
2023/10/12 01:35:27;;;;;;;9.90;4.30;;;;;;;11.94;42.62;100749.55;105683;1256;60525;-61
2023/10/12 01:38:00;;;;;;;11.70;3.70;;;;;;;11.93;42.72;100751.36;105687;1258;59576;-59
2023/10/12 01:40:41;;;;;;;9.50;4.30;;;;;;;11.94;42.74;100748.86;105679;1260;65396;-61
2023/10/12 01:43:12;;;;;;;5.10;1.70;;;;;;;11.94;42.75;100744.29;105332;1261;61552;-67
2023/10/12 01:45:43;;;;;;;9.00;3.90;;;;;;;11.94;42.85;100743.95;105203;1255;63666;-61
2023/10/12 01:48:12;;;;;;;8.00;3.20;;;;;;;11.93;42.81;100746.97;105311;1253;60576;-63
2023/10/12 01:50:43;;;;;;;11.00;4.20;;;;;;;11.93;42.84;100749.27;105229;1253;59252;-60
2023/10/12 01:55:51;;;;;;;8.80;4.20;;;;;;;11.91;42.92;100752.90;105802;1253;63431;-64
2023/10/12 01:58:19;;;;;;;8.60;3.70;;;;;;;11.91;42.99;100753.46;105920;1256;63811;-65
2023/10/12 02:00:53;;;;;;;8.10;3.60;;;;;;;11.90;43.15;100747.88;105133;1259;60944;-59
2023/10/12 02:05:59;;;;;;;9.90;3.80;;;;;;;11.89;43.15;100741.95;105247;1253;63722;-60
2023/10/12 02:08:59;;;;;;;10.70;3.30;;;;;;;11.88;43.22;100736.77;105562;1256;61491;-58
2023/10/12 02:13:54;;;;;;;9.90;3.70;;;;;;;11.87;43.22;100733.02;105293;1253;60461;-62
2023/10/12 02:16:30;;;;;;;7.20;3.60;;;;;;;11.86;43.32;100737.81;105776;1260;60410;-63
2023/10/12 02:18:58;;;;;;;6.50;3.60;;;;;;;11.87;43.30;100740.79;105520;1253;63685;-59
2023/10/12 02:21:26;;;;;;;7.90;3.60;;;;;;;11.86;43.44;100744.14;105593;1260;60378;-60
2023/10/12 02:29:18;;;;;;;10.70;3.80;;;;;;;11.86;43.39;100737.11;105802;1259;60528;-60
2023/10/12 02:34:26;;;;;;;7.20;1.80;;;;;;;11.86;43.45;100736.77;105779;1260;60542;-60
2023/10/12 02:39:41;;;;;;;10.20;4.40;;;;;;;11.86;43.59;100735.71;105259;1259;60496;-63
2023/10/12 02:47:25;;;;;;;10.20;3.80;;;;;;;11.83;43.79;100727.54;105245;1259;60497;-63
2023/10/12 02:50:00;;;;;;;10.00;4.40;;;;;;;11.82;43.85;100726.02;105253;1260;64190;-63
2023/10/12 02:52:30;;;;;;;7.10;1.50;;;;;;;11.82;43.86;100720.06;105556;1259;60563;-63
2023/10/12 02:55:07;;;;;;;7.40;3.80;;;;;;;11.81;43.84;100718.54;105493;1253;60427;-63
2023/10/12 02:57:37;;;;;;;9.30;4.10;;;;;;;11.81;43.95;100716.30;105361;1253;64952;-62
2023/10/12 03:02:41;;;;;;;9.80;4.60;;;;;;;11.79;44.09;100710.48;105182;1261;62478;-61
2023/10/12 03:05:17;;;;;;;7.60;3.80;;;;;;;11.77;44.05;100706.90;105299;1258;60458;-62
2023/10/12 03:07:46;;;;;;;8.70;4.20;;;;;;;11.76;44.28;100702.47;105805;1261;60470;-59
2023/10/12 03:10:26;;;;;;;12.50;4.40;;;;;;;11.74;44.27;100701.35;105341;1253;63747;-64
2023/10/12 03:13:04;;;;;;;9.10;3.00;;;;;;;11.73;44.35;100696.48;105212;1259;61924;-66
2023/10/12 03:15:41;;;;;;;8.80;4.30;;;;;;;11.72;44.37;100692.73;105385;1258;62533;-66
2023/10/12 03:18:13;;;;;;;13.10;4.20;;;;;;;11.72;44.47;100690.79;105335;1258;60634;-62
2023/10/12 03:21:01;;;;;;;8.00;4.00;;;;;;;11.72;44.49;100691.48;105346;1253;60498;-61
2023/10/12 03:23:29;;;;;;;8.40;4.00;;;;;;;11.72;44.62;100690.78;105293;1253;63781;-65
2023/10/12 03:25:57;;;;;;;9.50;4.10;;;;;;;11.72;44.66;100688.34;106532;1258;60344;-61
2023/10/12 03:28:31;;;;;;;12.40;4.50;;;;;;;11.71;44.74;100688.02;105287;1254;63700;-62
2023/10/12 03:33:59;;;;;;;11.20;4.20;;;;;;;11.71;44.87;100688.25;105109;1261;60442;-58
2023/10/12 03:36:36;;;;;;;10.80;4.60;;;;;;;11.70;44.86;100686.71;105697;1256;64925;-58
2023/10/12 03:41:55;;;;;;;8.20;4.10;;;;;;;11.71;44.98;100690.50;105864;1260;62517;-62
2023/10/12 03:52:39;;;;;;;9.00;3.80;;;;;;;11.70;45.15;100687.09;105563;1254;61374;-60
2023/10/12 04:02:56;;;;;;;14.50;4.50;;;;;;;11.69;45.40;100677.98;105104;1259;64864;-59
2023/10/12 04:21:40;;;;;;;13.80;4.70;;;;;;;11.65;45.80;100667.96;105322;1256;63672;-65
2023/10/12 04:29:21;;;;;;;12.00;4.80;;;;;;;11.66;46.05;100668.20;105284;1253;64955;-63
2023/10/12 04:31:49;;;;;;;4.50;1.40;;;;;;;11.67;46.11;100670.23;105313;1253;61718;-61
2023/10/12 04:34:26;;;;;;;10.20;4.30;;;;;;;11.69;46.15;100676.62;105859;1257;63780;-62
2023/10/12 04:37:11;;;;;;;8.90;4.20;;;;;;;11.70;46.14;100677.39;105636;1253;59443;-64
2023/10/12 04:39:48;;;;;;;13.00;4.70;;;;;;;11.71;46.21;100673.63;105381;1259;60576;-63
2023/10/12 04:42:34;;;;;;;5.40;1.70;;;;;;;11.73;46.36;100678.92;105908;1253;63635;-64
2023/10/12 04:45:16;;;;;;;12.80;3.70;;;;;;;11.76;46.34;100681.75;105416;1257;61584;-62
2023/10/12 04:47:46;;;;;;;10.70;4.70;;;;;;;11.78;46.38;100682.11;105909;1255;63772;-65
2023/10/12 04:50:27;;;;;;;11.60;4.30;;;;;;;11.80;46.28;100683.83;105334;1256;61867;-63
2023/10/12 04:53:07;;;;;;;10.20;4.70;;;;;;;11.83;46.34;100682.02;105759;1253;60585;-61
2023/10/12 04:55:35;;;;;;;11.80;4.50;;;;;;;11.85;46.35;100680.73;105360;1259;64985;-61
2023/10/12 04:58:09;;;;;;;9.90;4.00;;;;;;;11.88;46.38;100683.48;106227;1253;61408;-61
2023/10/12 05:00:55;;;;;;;11.40;4.60;;;;;;;11.91;46.42;100679.08;105327;1260;63674;-63
2023/10/12 05:03:25;;;;;;;5.40;2.00;;;;;;;11.95;46.41;100677.91;106483;1257;61396;-62
2023/10/12 05:06:04;;;;;;;12.50;4.50;;;;;;;11.98;46.29;100677.86;105652;1256;60458;-62
2023/10/12 05:08:33;;;;;;;10.70;4.40;;;;;;;12.01;46.30;100675.84;105542;1261;65064;-65
2023/10/12 05:11:01;;;;;;;9.70;4.10;;;;;;;12.05;46.33;100677.97;105499;1256;62246;-62
2023/10/12 05:13:28;;;;;;;10.60;4.70;;;;;;;12.09;46.38;100677.11;105218;1259;62520;-63
2023/10/12 05:15:56;;;;;;;10.60;4.60;;;;;;;12.14;46.31;100674.44;105229;1253;60508;-63
2023/10/12 05:18:25;;;;;;;7.90;4.20;;;;;;;12.18;46.32;100677.80;105529;1259;60490;-57
2023/10/12 05:20:52;;;;;;;13.60;4.30;;;;;;;12.23;46.22;100680.74;105730;1254;65150;-58
2023/10/12 05:23:20;;;;;;;10.90;4.40;;;;;;;12.27;46.30;100684.78;105246;1256;61335;-57
2023/10/12 05:25:48;;;;;;;11.30;4.30;;;;;;;12.32;46.33;100683.19;105821;1256;62464;-63
2023/10/12 05:28:17;;;;;;;13.80;4.60;;;;;;;12.36;46.32;100684.75;105782;1257;61724;-62
2023/10/12 05:30:55;;;;;;;14.10;4.60;;;;;;;12.41;46.27;100684.13;105895;1260;60423;-65
2023/10/12 05:36:13;;;;;;;8.40;4.10;;;;;;;12.54;46.37;100692.79;105291;1253;69968;-62
2023/10/12 05:38:48;;;;;;;12.80;5.00;;;;;;;12.59;46.32;100684.63;105265;1260;62483;-62
2023/10/12 05:44:03;;;;;;;10.20;4.80;;;;;;;12.69;46.21;100685.58;105275;1254;60630;-61
2023/10/12 05:46:33;;;;;;;8.70;4.10;;;;;;;12.72;46.27;100676.11;105438;1256;63638;-66
2023/10/12 05:49:02;;;;;;;10.40;3.80;;;;;;;12.78;46.28;100673.14;105453;1253;61490;-61
2023/10/12 05:51:30;;;;;;;10.50;4.50;;;;;;;12.84;46.32;100674.56;107227;1256;63921;-68
2023/10/12 05:54:07;;;;;;;8.10;4.20;;;;;;;12.88;46.22;100676.53;105569;1262;60795;-60
2023/10/12 05:56:35;;;;;;;12.20;4.20;;;;;;;12.93;46.28;100673.88;105361;1256;60509;-60
2023/10/12 05:59:12;;;;;;;11.50;4.30;;;;;;;12.96;46.25;100676.77;105252;1253;63697;-66
2023/10/12 06:01:45;;;;;;;10.90;4.30;;;;;;;12.98;46.31;100678.82;105297;1260;61352;-63
2023/10/12 06:04:19;;;;;;;10.50;4.60;;;;;;;13.02;46.41;100677.66;105230;1259;62581;-62
2023/10/12 06:06:51;;;;;;;6.40;2.00;;;;;;;13.05;46.45;100681.25;105150;1259;61087;-62
2023/10/12 06:09:20;;;;;;;12.40;4.20;;;;;;;13.08;46.40;100679.05;109064;1256;58350;-58
2023/10/12 06:11:48;;;;;;;9.40;4.50;;;;;;;13.13;46.53;100676.90;109039;1253;64931;-62
2023/10/12 06:14:20;;;;;;;9.70;4.40;;;;;;;13.18;46.59;100672.25;107504;1259;60440;-59
2023/10/12 06:16:54;;;;;;;15.50;4.60;;;;;;;13.24;46.43;100669.27;107447;1256;64281;-62
2023/10/12 06:19:26;;;;;;;13.40;4.60;;;;;;;13.29;46.45;100665.80;105581;1257;60615;-56
2023/10/12 06:22:19;;;;;;;11.70;4.70;;;;;;;13.34;46.49;100666.27;105652;1259;60439;-56
2023/10/12 06:24:52;;;;;;;13.40;4.80;;;;;;;13.40;46.55;100667.91;109026;1258;64938;-58
2023/10/12 06:29:49;;;;;;;8.50;4.20;;;;;;;13.50;46.62;100658.54;109224;1253;63708;-61
2023/10/12 06:32:18;;;;;;;10.40;4.50;;;;;;;13.58;46.61;100661.75;109056;1256;59384;-60
2023/10/12 06:35:34;;;;;;;11.30;4.20;;;;;;;13.65;46.62;100662.91;109067;1253;58191;-55
2023/10/12 06:45:51;;;;;;;11.00;4.60;;;;;;;13.94;46.42;100656.94;105412;1254;60562;-57
2023/10/12 06:51:02;;;;;;;12.00;4.40;;;;;;;14.05;46.42;100647.98;105710;1255;63704;-57
2023/10/12 06:53:34;;;;;;;9.00;4.10;;;;;;;14.11;46.39;100648.76;105521;1259;61495;-60
2023/10/12 06:56:24;;;;;;;10.80;4.50;;;;;;;14.17;46.52;100649.60;106157;1260;64355;-59
2023/10/12 07:04:36;;;;;;;8.60;4.30;;;;;;;14.45;46.49;100650.19;105158;1261;64965;-61
2023/10/12 07:07:07;;;;;;;9.60;4.30;;;;;;;14.56;46.50;100654.81;106226;1254;61319;-61
2023/10/12 07:09:46;;;;;;;10.60;4.40;;;;;;;14.66;46.40;100651.86;105174;1260;63767;-60
2023/10/12 07:12:17;;;;;;;11.80;4.40;;;;;;;14.77;46.52;100651.23;106015;1254;60776;-61
2023/10/12 07:14:53;;;;;;;11.40;4.00;;;;;;;14.88;46.34;100647.70;105971;1260;60293;-59
2023/10/12 07:17:55;;;;;;;11.10;4.20;;;;;;;14.98;46.01;100646.74;105845;1254;65991;-61
2023/10/12 07:25:49;;;;;;;12.50;3.90;;;;;;;15.28;45.86;100641.06;105183;1254;60442;-62
2023/10/12 07:28:18;;;;;;;10.70;3.90;;;;;;;15.38;45.81;100639.17;105913;1254;59286;-55
2023/10/12 07:33:34;;;;;;;11.30;4.40;;;;;;;15.59;45.42;100627.69;105139;1265;61571;-60
2023/10/12 07:36:11;;;;;;;9.10;4.10;;;;;;;15.69;45.34;100626.86;105185;1259;63941;-59
2023/10/12 07:41:41;;;;;;;10.50;4.30;;;;;;;15.77;45.59;100621.52;102225;1305;600404;-62
2023/10/12 07:44:09;;;;;;;8.50;3.90;;;;;;;16.05;45.38;100614.70;105006;1256;59187;-61
2023/10/12 07:46:36;;;;;;;8.00;4.10;;;;;;;16.19;45.10;100618.65;105260;1262;59216;-69
2023/10/12 07:57:15;;;;;;;11.30;4.00;;;;;;;16.63;44.44;100608.91;105900;1254;60515;-59
2023/10/12 07:59:59;;;;;;;11.90;4.90;;;;;;;16.72;44.24;100605.28;105364;1259;59227;-58
2023/10/12 08:39:49;;;;;;;11.80;5.30;;;;;;;18.00;42.50;100589.92;105253;1258;59796;-63
2023/10/12 08:45:09;;;;;;;10.40;4.70;;;;;;;18.01;42.19;100590.92;105074;1260;61341;-60
2023/10/12 08:52:38;;;;;;;9.80;4.70;;;;;;;18.29;42.10;100585.41;105317;1260;59605;-63
2023/10/12 08:58:52;;;;;;;9.60;4.40;;;;;;;18.45;41.90;100586.38;105999;1258;61577;-63
2023/10/12 09:01:07;;;;;;;12.10;4.90;;;;;;;18.55;41.97;100573.47;104987;1259;63792;-60
2023/10/12 09:03:44;;;;;;;10.00;4.70;;;;;;;18.67;41.85;100571.20;109021;1254;57425;-62
2023/10/12 09:06:39;;;;;;;10.30;4.60;;;;;;;18.82;41.77;100570.50;109115;1255;57482;-63
2023/10/12 09:09:09;;;;;;;9.10;3.90;;;;;;;18.97;41.78;100552.59;108331;1258;62862;-61
2023/10/12 09:11:38;;;;;;;9.80;3.80;;;;;;;19.11;41.47;100545.06;105166;1260;60115;-59
2023/10/12 09:14:14;;;;;;;9.90;4.20;;;;;;;19.24;41.13;100552.63;105310;1259;63862;-59
2023/10/12 09:16:43;;;;;;;8.30;4.30;;;;;;;19.35;40.91;100542.30;105284;1254;59693;-54
2023/10/12 09:19:28;;;;;;;8.10;4.10;;;;;;;19.44;41.03;100537.83;105188;1259;59741;-58
2023/10/12 09:22:04;;;;;;;7.30;3.70;;;;;;;19.56;40.76;100536.02;105490;1259;64526;-53
2023/10/12 09:24:35;;;;;;;9.00;3.80;;;;;;;19.66;40.63;100530.49;105068;1260;62633;-67
2023/10/12 09:27:14;;;;;;;14.00;4.10;;;;;;;19.77;40.45;100524.00;105050;1254;63819;-69
2023/10/12 09:30:01;;;;;;;9.20;3.90;;;;;;;19.87;40.26;100516.73;109102;1254;57448;-61
2023/10/12 09:32:32;;;;;;;9.00;3.80;;;;;;;20.01;40.15;100510.30;109102;1254;57641;-62
2023/10/12 09:35:13;;;;;;;10.40;3.90;;;;;;;20.13;39.66;100510.95;109081;1254;62902;-62
2023/10/12 09:37:51;;;;;;;15.90;4.50;;;;;;;20.23;39.43;100495.56;107599;1259;61395;-59
2023/10/12 09:43:25;;;;;;;14.10;4.40;;;;;;;20.44;39.02;100491.24;108640;1264;57685;-65
2023/10/12 09:45:58;;;;;;;7.70;3.70;;;;;;;20.55;39.22;100487.63;105422;1263;62261;-59
2023/10/12 09:48:29;;;;;;;9.50;4.20;;;;;;;20.69;39.31;100478.81;104961;1257;75186;-61
2023/10/12 09:50:57;;;;;;;8.10;4.60;;;;;;;20.83;39.00;100470.08;107847;1262;60316;-62
2023/10/12 09:53:36;;;;;;;9.10;4.00;;;;;;;20.95;38.58;100479.61;107878;1254;63748;-61
2023/10/12 09:56:15;;;;;;;11.10;4.70;;;;;;;21.06;38.17;100474.59;105248;1261;59766;-60
2023/10/12 09:58:51;;;;;;;9.50;4.00;;;;;;;21.13;38.09;100472.36;105803;1254;59740;-62
2023/10/12 10:02:23;;;;;;;10.30;4.20;;;;;;;21.19;37.98;100462.11;105248;1258;66750;-59
2023/10/12 10:09:46;;;;;;;8.80;4.50;;;;;;;21.43;37.82;100455.02;106726;1254;59638;-59
2023/10/12 10:12:20;;;;;;;12.30;4.30;;;;;;;21.53;37.81;100442.89;106925;1254;59669;-62
2023/10/12 10:14:59;;;;;;;11.60;3.90;;;;;;;21.64;37.41;100447.03;106025;1258;64103;-60
2023/10/12 10:17:36;;;;;;;11.60;4.10;;;;;;;21.71;37.30;100440.81;105733;1259;61365;-50
2023/10/12 10:20:19;;;;;;;14.80;4.90;;;;;;;21.76;37.30;100431.82;105354;1259;63754;-57
2023/10/12 10:22:56;;;;;;;8.10;4.40;;;;;;;21.82;37.16;100435.34;105796;1259;59747;-61
2023/10/12 10:25:50;;;;;;;13.10;4.60;;;;;;;21.88;36.99;100424.53;105189;1258;59706;-56
2023/10/12 10:28:25;;;;;;;10.30;3.80;;;;;;;21.94;37.06;100414.52;105084;1254;62857;-58
2023/10/12 10:30:56;;;;;;;12.60;4.30;;;;;;;21.97;37.03;100413.02;105271;1254;61343;-61
2023/10/12 10:33:26;;;;;;;11.50;5.30;;;;;;;22.03;37.21;100413.29;105310;1263;62460;-59
2023/10/12 10:41:23;;;;;;;11.30;4.00;;;;;;;22.28;36.44;100405.11;105794;1255;62860;-62
2023/10/12 10:43:53;;;;;;;10.90;4.40;;;;;;;22.35;36.47;100411.92;105923;1259;72652;-62
2023/10/12 10:46:26;;;;;;;11.20;3.60;;;;;;;22.42;36.40;100403.86;105731;1255;63765;-62
2023/10/12 10:48:55;;;;;;;8.30;3.40;;;;;;;22.51;36.02;100403.61;105712;1254;59763;-65
2023/10/12 10:52:01;;;;;;;6.90;3.80;;;;;;;22.58;35.85;100402.23;105281;1260;59730;-59
2023/10/12 10:54:30;;;;;;;11.60;3.50;;;;;;;22.70;36.06;100404.13;105299;1256;63083;-60
2023/10/12 10:56:59;;;;;;;8.30;3.90;;;;;;;22.84;36.14;100400.48;105752;1254;61364;-64
2023/10/12 10:59:28;;;;;;;8.90;3.80;;;;;;;22.98;35.49;100386.43;107953;1259;62598;-64
2023/10/12 11:01:59;;;;;;;13.90;4.40;;;;;;;23.06;35.14;100385.27;105234;1258;61343;-59
2023/10/12 11:07:06;;;;;;;9.00;4.40;;;;;;;23.07;35.44;100382.30;105445;1254;63271;-62
2023/10/12 11:12:37;;;;;;;8.40;3.60;;;;;;;23.21;35.33;100371.45;105365;1254;73684;-48
2023/10/12 11:15:09;;;;;;;8.00;4.30;;;;;;;23.33;35.35;100368.30;105425;1258;59744;-49
2023/10/12 11:17:41;;;;;;;12.70;4.50;;;;;;;23.47;35.36;100363.17;106211;1257;59740;-48
2023/10/12 11:20:27;;;;;;;9.90;4.10;;;;;;;23.61;35.05;100355.46;105219;1255;65177;-46
2023/10/12 11:22:55;;;;;;;7.80;3.30;;;;;;;23.74;34.87;100349.05;105760;1259;60663;-50
2023/10/12 11:25:26;;;;;;;11.00;4.30;;;;;;;23.86;34.58;100352.71;105705;1260;64174;-48
2023/10/12 11:27:54;;;;;;;7.40;4.20;;;;;;;23.96;34.69;100353.27;105635;1257;59741;-50
2023/10/12 11:30:29;;;;;;;12.40;4.10;;;;;;;24.06;34.42;100349.67;105145;1260;62609;-49
2023/10/12 11:32:58;;;;;;;7.10;3.90;;;;;;;24.15;34.46;100345.71;106462;1254;64441;-48
2023/10/12 11:35:33;;;;;;;11.10;4.10;;;;;;;24.23;34.08;100338.19;105548;1254;60575;-49
2023/10/12 11:38:03;;;;;;;11.30;3.70;;;;;;;24.32;34.11;100335.59;105530;1254;65681;-47
2023/10/12 11:40:31;;;;;;;10.30;3.80;;;;;;;24.38;34.05;100335.05;105229;1254;59711;-52
2023/10/12 11:42:59;;;;;;;8.20;3.70;;;;;;;24.43;34.08;100331.73;105347;1254;59726;-48
2023/10/12 11:45:32;;;;;;;13.50;3.80;;;;;;;24.44;33.54;100331.59;105332;1255;63118;-46
2023/10/12 11:48:20;;;;;;;10.10;3.60;;;;;;;24.38;33.46;100323.69;105530;1254;61980;-46
2023/10/12 11:50:48;;;;;;;7.40;3.40;;;;;;;24.30;33.43;100321.90;105954;1254;64188;-49
2023/10/12 11:53:17;;;;;;;13.20;3.90;;;;;;;24.25;33.60;100319.85;105865;1257;59634;-50
2023/10/12 11:55:48;;;;;;;8.80;3.70;;;;;;;24.25;33.61;100317.13;105207;1258;59503;-49
2023/10/12 11:58:19;;;;;;;7.10;3.40;;;;;;;24.29;33.31;100314.10;105949;1259;63021;-49
2023/10/12 12:00:50;;;;;;;9.60;3.70;;;;;;;24.34;33.23;100315.15;105893;1254;61743;-46
2023/10/12 12:03:18;;;;;;;9.20;3.60;;;;;;;24.37;33.17;100313.71;106082;1258;63861;-48
2023/10/12 12:05:51;;;;;;;12.90;3.20;;;;;;;24.38;33.17;100308.83;105201;1253;60530;-48
2023/10/12 12:08:19;;;;;;;8.00;3.50;;;;;;;24.34;33.14;100304.51;105164;1259;61272;-47
2023/10/12 12:13:20;;;;;;;7.30;3.70;;;;;;;24.27;33.50;100307.17;104956;1254;61424;-49
2023/10/12 12:15:48;;;;;;;8.50;4.00;;;;;;;24.27;33.30;100306.10;108342;1254;63687;-49
2023/10/12 12:18:20;;;;;;;9.90;3.70;;;;;;;24.26;33.27;100297.27;105017;1258;61787;-48
2023/10/12 12:20:50;;;;;;;12.70;3.60;;;;;;;24.26;33.24;100301.33;105098;1254;60365;-48
2023/10/12 12:23:19;;;;;;;10.90;3.80;;;;;;;24.24;33.27;100291.33;107458;1254;63639;-48
2023/10/12 12:25:46;;;;;;;13.10;4.50;;;;;;;24.22;33.28;100289.06;105954;1254;61392;-48
2023/10/12 12:28:14;;;;;;;8.70;3.60;;;;;;;24.21;33.27;100286.13;105307;1257;62761;-46
2023/10/12 12:30:55;;;;;;;9.30;4.20;;;;;;;24.24;33.22;100285.29;105312;1254;60570;-49
2023/10/12 12:33:27;;;;;;;13.30;3.90;;;;;;;24.28;33.16;100283.95;105707;1254;60783;-48
2023/10/12 12:36:00;;;;;;;11.80;4.50;;;;;;;24.35;33.20;100283.48;105632;1254;65634;-43
2023/10/12 12:38:44;;;;;;;10.00;4.40;;;;;;;24.44;33.03;100280.11;105446;1260;62999;-44
2023/10/12 12:41:18;;;;;;;9.90;4.50;;;;;;;24.52;32.98;100277.05;105806;1254;62839;-45
2023/10/12 12:43:46;;;;;;;12.10;3.90;;;;;;;24.57;32.72;100270.20;105121;1260;60612;-48
2023/10/12 12:46:15;;;;;;;10.10;4.10;;;;;;;24.68;32.86;100271.25;109161;1257;58195;-49
2023/10/12 12:48:46;;;;;;;10.40;4.70;;;;;;;24.84;32.63;100265.66;109106;1258;64912;-46
2023/10/12 12:51:20;;;;;;;9.60;3.20;;;;;;;25.02;32.12;100260.20;109135;1258;61629;-46
2023/10/12 12:53:50;;;;;;;9.00;3.90;;;;;;;25.27;31.68;100251.66;109085;1253;74851;-49
2023/10/12 12:56:19;;;;;;;7.90;3.50;;;;;;;25.47;31.66;100247.31;109101;1254;58499;-48
2023/10/12 12:58:48;;;;;;;8.50;3.50;;;;;;;25.56;31.58;100245.30;109157;1253;58274;-48
2023/10/12 13:01:23;;;;;;;11.80;4.50;;;;;;;25.53;31.42;100241.98;106799;1255;64925;-48
2023/10/12 13:03:52;;;;;;;9.30;4.20;;;;;;;25.42;31.73;100240.52;105786;1254;60818;-48
2023/10/12 13:06:19;;;;;;;9.90;3.70;;;;;;;25.33;31.76;100232.42;105700;1254;64872;-47
2023/10/12 13:08:47;;;;;;;10.60;3.70;;;;;;;25.28;31.77;100229.20;105316;1259;60757;-48
2023/10/12 13:11:19;;;;;;;11.30;4.10;;;;;;;25.21;31.74;100228.63;105864;1254;60460;-48
2023/10/12 13:13:47;;;;;;;11.00;3.90;;;;;;;25.11;31.95;100227.16;105700;1258;65330;-49
2023/10/12 13:16:16;;;;;;;7.50;3.90;;;;;;;24.98;32.15;100230.52;105860;1254;62920;-48
2023/10/12 13:18:47;;;;;;;10.30;3.50;;;;;;;24.83;32.36;100221.59;105281;1257;63736;-49
2023/10/12 13:21:16;;;;;;;8.40;3.50;;;;;;;24.68;32.75;100220.10;105974;1258;60543;-49
2023/10/12 13:23:45;;;;;;;10.10;3.90;;;;;;;24.56;33.07;100219.15;105930;1253;60451;-49
2023/10/12 13:26:17;;;;;;;9.50;3.90;;;;;;;24.43;33.26;100216.41;105363;1253;67012;-51
2023/10/12 13:28:45;;;;;;;7.50;3.10;;;;;;;24.29;33.44;100213.86;105882;1254;61371;-47
2023/10/12 13:31:13;;;;;;;10.10;3.60;;;;;;;24.15;33.52;100217.64;105103;1254;63922;-51
2023/10/12 13:33:41;;;;;;;8.80;3.70;;;;;;;24.04;33.87;100217.05;105023;1259;60652;-50
2023/10/12 13:36:10;;;;;;;10.20;3.90;;;;;;;23.97;34.09;100218.19;105239;1254;60505;-48
2023/10/12 13:38:39;;;;;;;8.80;3.40;;;;;;;23.93;34.23;100221.06;105198;1254;66983;-47
2023/10/12 13:41:10;;;;;;;9.90;3.30;;;;;;;23.90;34.10;100214.17;105296;1260;73813;-50
2023/10/12 13:43:39;;;;;;;10.20;3.60;;;;;;;23.89;34.14;100204.39;106897;1253;63736;-49
2023/10/12 13:46:07;;;;;;;9.10;3.40;;;;;;;23.91;34.14;100205.13;105219;1253;60496;-50
2023/10/12 13:48:37;;;;;;;8.40;3.50;;;;;;;23.94;34.07;100192.49;105455;1252;60558;-48
2023/10/12 13:51:12;;;;;;;11.90;3.60;;;;;;;23.97;34.06;100185.79;105252;1257;63621;-48
2023/10/12 13:53:41;;;;;;;12.50;3.90;;;;;;;23.96;34.20;100197.13;105465;1257;61544;-48
2023/10/12 13:56:09;;;;;;;7.40;3.30;;;;;;;23.92;34.15;100199.34;105491;1253;64160;-50
2023/10/12 13:58:38;;;;;;;11.10;3.20;;;;;;;23.87;34.23;100201.45;105249;1254;60554;-50
2023/10/12 14:01:14;;;;;;;13.30;4.00;;;;;;;23.82;34.34;100201.68;105375;1253;60452;-48
2023/10/12 14:03:45;;;;;;;9.60;3.80;;;;;;;23.79;34.38;100201.35;105471;1253;65387;-50
2023/10/12 14:06:13;;;;;;;12.60;4.20;;;;;;;23.78;34.29;100204.75;105340;1253;60556;-49
2023/10/12 14:08:42;;;;;;;9.20;4.00;;;;;;;23.73;34.39;100212.38;105344;1254;63729;-48
2023/10/12 14:11:16;;;;;;;9.70;3.90;;;;;;;23.66;34.51;100226.13;105338;1254;60534;-50
2023/10/12 14:13:45;;;;;;;9.70;3.80;;;;;;;23.54;34.69;100228.02;105367;1257;60509;-50
2023/10/12 14:16:12;;;;;;;12.70;3.80;;;;;;;23.45;34.85;100228.59;106031;1257;63801;-50
2023/10/12 14:18:41;;;;;;;11.70;3.80;;;;;;;23.33;34.90;100229.16;105354;1254;61291;-49
2023/10/12 14:21:13;;;;;;;13.10;3.80;;;;;;;23.21;35.14;100222.58;105413;1257;63781;-49
2023/10/12 14:23:45;;;;;;;10.90;3.50;;;;;;;23.11;35.21;100226.81;105439;1257;61127;-50
2023/10/12 14:26:22;;;;;;;9.10;3.90;;;;;;;23.00;35.40;100234.00;105318;1257;60560;-48
2023/10/12 14:28:50;;;;;;;8.80;4.00;;;;;;;22.89;35.49;100235.23;105868;1254;64914;-50
2023/10/12 14:31:22;;;;;;;11.00;3.60;;;;;;;22.80;35.74;100229.50;105821;1253;61580;-50
2023/10/12 14:33:51;;;;;;;9.90;3.30;;;;;;;22.74;36.01;100224.80;105690;1257;64140;-49
2023/10/12 14:36:20;;;;;;;13.30;3.40;;;;;;;22.69;36.09;100231.02;105882;1252;63433;-50
2023/10/12 14:38:48;;;;;;;7.50;3.40;;;;;;;22.64;36.23;100231.48;105855;1257;60469;-50
2023/10/12 14:41:18;;;;;;;9.50;4.10;;;;;;;22.61;36.13;100231.23;105238;1253;63732;-49
2023/10/12 14:43:49;;;;;;;8.50;3.20;;;;;;;22.56;36.19;100224.74;105340;1257;61755;-52
2023/10/12 14:46:20;;;;;;;10.20;3.40;;;;;;;22.50;36.28;100221.38;106021;1257;63713;-51
2023/10/12 14:48:51;;;;;;;10.50;3.40;;;;;;;22.46;36.47;100221.74;105800;1254;60572;-55
2023/10/12 14:51:29;;;;;;;11.50;3.60;;;;;;;22.41;36.60;100219.18;105872;1255;60545;-50
2023/10/12 14:53:57;;;;;;;8.00;3.40;;;;;;;22.37;36.47;100223.99;105620;1257;64854;-51